Pagrindinis puslapis
METAR-TAF:

METAR-TAF

Oro uostai :

Kingstonas, Jamaika

platuma: 17-56N, ilguma: 076-47W, Aukštis: 3 m

Dabartinis oras

Ataskaita buvo paskelbta 1 valandą ir 6 minutes, ne 11:00 UTC
Vėjas 6 kt iš Rytų
Temperatūra 28°C
Drėgmė 74%
Slėgis 1013 hPa
Matomumas 10 km arba daugiau
Mažai debesys ne aukštis 2000 ft

METAR: MKJP 281100Z 10006KT 9999 FEW020 28/23 Q1013

Laikas: 07:06 (12:06 UTC)

Prognozė

Ataskaita buvo paskelbta 51 minutes, ne 11:15 UTC
Prognozė galioja nuo 28 metu 12 UTC su 29 metu 12 UTC
Vėjas 10 kt iš Pietryčių
Matomumas 10 km arba daugiau
Mažai debesys ne aukštis 2200 ft
Tapsmas
nuo 28 metu 14 UTC su 28 metu 16 UTC
Vėjas 20 kt iš Pietryčių
Tapsmas
nuo 29 metu 01 UTC su 29 metu 03 UTC
Vėjas 5 kt iš Šiaurės

TAF: MKJP 281115Z 2812/2912 13010KT 9999 FEW022 BECMG 2814/2816 13020KT BECMG 2901/2903 35005KT

Orai ataskaitas ir orų prognozės (METAR, TAF).

turimą stotys yra geltonos ir raudonos taškus žemėlapyje.

Perkelti pele per norėdami pamatyti stoties vardą.

Tada spustelėkite, norėdami matyti oro stebėjimo ir prognozės.

Norėdami pakeisti žemėlapį: spustelėkite ant žalios mygtukų su juodo kryžiaus žemyn,; žalią mygtuką su brūkšneliu, jei norite nutolinti; arba žalių rodyklių gretimoms žemėlapius.


METAR-TAF: